createdAt,value
2018-08-04T00:01:46.882Z,19.70
2018-08-04T00:04:16.175Z,19.30
2018-08-04T00:06:45.397Z,19.53
2018-08-04T00:09:14.596Z,19.43
2018-08-04T00:11:43.537Z,20.50
2018-08-04T00:14:12.800Z,20.03
2018-08-04T00:16:41.863Z,19.30
2018-08-04T00:19:10.804Z,19.30
2018-08-04T00:21:39.870Z,19.97
2018-08-04T00:24:08.870Z,20.47
2018-08-04T00:26:37.903Z,20.67
2018-08-04T00:29:06.898Z,18.47
2018-08-04T00:31:36.108Z,20.50
2018-08-04T00:34:05.287Z,20.20
2018-08-04T00:36:34.359Z,18.80
2018-08-04T00:39:03.539Z,18.37
2018-08-04T00:41:32.571Z,18.70
2018-08-04T00:44:01.621Z,18.40
2018-08-04T00:46:30.836Z,19.43
2018-08-04T00:48:59.774Z,19.50
2018-08-04T00:51:28.776Z,18.73
2018-08-04T00:53:57.732Z,19.13
2018-08-04T00:56:26.662Z,18.33
2018-08-04T00:58:55.665Z,19.47
2018-08-04T01:01:24.713Z,19.87
2018-08-04T01:03:53.759Z,20.40
2018-08-04T01:06:22.713Z,21.60
2018-08-04T01:08:51.703Z,21.20
2018-08-04T01:11:20.823Z,22.70
2018-08-04T01:13:49.785Z,21.57
2018-08-04T01:16:18.832Z,22.00
2018-08-04T01:18:47.902Z,21.20
2018-08-04T01:21:16.846Z,20.30
2018-08-04T01:23:45.987Z,21.93
2018-08-04T01:26:15.061Z,23.23
2018-08-04T01:28:44.070Z,22.87
2018-08-04T01:31:13.074Z,21.87
2018-08-04T01:33:41.991Z,23.10
2018-08-04T01:36:11.029Z,21.47
2018-08-04T01:38:39.982Z,22.77
2018-08-04T01:41:08.988Z,22.10
2018-08-04T01:43:37.954Z,23.17
2018-08-04T01:46:06.495Z,24.00
2018-08-04T01:48:35.446Z,22.87
2018-08-04T01:51:04.513Z,23.00
2018-08-04T01:53:33.556Z,22.40
2018-08-04T01:56:02.512Z,23.80
2018-08-04T01:58:31.587Z,22.30
2018-08-04T02:01:00.564Z,23.80
2018-08-04T02:03:29.595Z,26.23
2018-08-04T02:05:58.677Z,25.40
2018-08-04T02:08:27.660Z,23.93
2018-08-04T02:10:56.555Z,24.27
2018-08-04T02:13:25.653Z,23.83
2018-08-04T02:15:54.618Z,23.67
2018-08-04T02:18:23.635Z,27.17
2018-08-04T02:20:52.584Z,25.00
2018-08-04T02:23:21.654Z,24.30
2018-08-04T02:25:50.724Z,24.80
2018-08-04T02:28:19.921Z,24.40
2018-08-04T02:30:48.849Z,24.30
2018-08-04T02:33:17.724Z,24.53
2018-08-04T02:35:46.788Z,24.40
2018-08-04T02:38:15.909Z,24.50
2018-08-04T02:40:45.060Z,25.20
2018-08-04T02:43:14.154Z,25.23
2018-08-04T02:45:43.116Z,23.43
2018-08-04T02:48:12.403Z,26.80
2018-08-04T02:50:41.819Z,25.53
2018-08-04T02:53:10.979Z,25.70
2018-08-04T02:55:40.018Z,25.37
2018-08-04T02:58:09.203Z,27.20
2018-08-04T03:00:38.360Z,24.73
2018-08-04T03:03:07.541Z,24.97
2018-08-04T03:05:36.628Z,26.33
2018-08-04T03:08:06.056Z,26.63
2018-08-04T03:10:35.218Z,26.33
2018-08-04T03:13:04.377Z,27.43
2018-08-04T03:15:33.442Z,26.40
2018-08-04T03:18:03.532Z,27.27
2018-08-04T03:20:32.684Z,28.60
2018-08-04T03:23:01.942Z,27.73
2018-08-04T03:25:31.126Z,27.50
2018-08-04T03:28:00.162Z,26.77
2018-08-04T03:30:29.191Z,25.50
2018-08-04T03:32:58.200Z,24.80
2018-08-04T03:35:27.104Z,27.40
2018-08-04T03:37:56.253Z,26.27
2018-08-04T03:40:25.341Z,26.20
2018-08-04T03:42:54.373Z,24.00
2018-08-04T03:45:23.480Z,28.10
2018-08-04T03:47:52.477Z,28.07
2018-08-04T03:50:21.601Z,28.10
2018-08-04T03:52:50.717Z,26.63
2018-08-04T03:55:19.847Z,28.43
2018-08-04T03:57:49.054Z,27.90
2018-08-04T04:00:18.703Z,26.93
2018-08-04T04:02:47.821Z,28.00
2018-08-04T04:05:16.973Z,27.27
2018-08-04T04:07:45.969Z,26.27
2018-08-04T04:10:15.064Z,26.73
2018-08-04T04:12:44.128Z,26.70
2018-08-04T04:15:13.297Z,26.80
2018-08-04T04:17:46.538Z,26.57
2018-08-04T04:20:16.750Z,26.50
2018-08-04T04:22:45.842Z,26.13
2018-08-04T04:25:14.900Z,25.23
2018-08-04T04:27:44.354Z,25.43
2018-08-04T04:30:14.865Z,25.20
2018-08-04T04:32:43.987Z,28.10
2018-08-04T04:35:12.713Z,25.00
2018-08-04T04:37:41.797Z,25.73
2018-08-04T04:40:10.843Z,26.03
2018-08-04T04:42:40.990Z,26.27
2018-08-04T04:45:10.055Z,25.40
2018-08-04T04:47:39.434Z,26.10
2018-08-04T04:50:08.541Z,25.40
2018-08-04T04:52:37.565Z,26.23
2018-08-04T04:55:06.919Z,24.90
2018-08-04T04:57:36.061Z,25.63
2018-08-04T05:00:05.198Z,25.80
2018-08-04T05:02:34.213Z,24.87
2018-08-04T05:05:03.306Z,26.57
2018-08-04T05:07:32.502Z,25.67
2018-08-04T05:10:03.389Z,24.80
2018-08-04T05:12:32.514Z,24.83
2018-08-04T05:15:04.244Z,24.97
2018-08-04T05:17:34.386Z,25.00
2018-08-04T05:20:03.722Z,26.83
2018-08-04T05:22:33.525Z,25.77
2018-08-04T05:25:03.885Z,25.30
2018-08-04T05:27:32.899Z,24.33
2018-08-04T05:30:01.991Z,24.67
2018-08-04T05:32:31.069Z,24.57
2018-08-04T05:34:59.971Z,25.17
2018-08-04T05:37:29.001Z,24.87
2018-08-04T05:39:58.037Z,23.73
2018-08-04T05:42:27.177Z,23.97
2018-08-04T05:44:56.277Z,25.00
2018-08-04T05:47:25.424Z,26.00
2018-08-04T05:49:54.387Z,25.33
2018-08-04T05:52:23.335Z,26.13
2018-08-04T05:54:52.619Z,24.83
2018-08-04T05:57:21.767Z,25.23
2018-08-04T05:59:50.700Z,24.07
2018-08-04T06:02:19.711Z,24.70
2018-08-04T06:04:48.988Z,24.87
2018-08-04T06:07:17.976Z,23.37
2018-08-04T06:09:46.940Z,26.50
2018-08-04T06:12:16.163Z,25.80
2018-08-04T06:14:45.409Z,26.30
2018-08-04T06:17:14.716Z,25.23
2018-08-04T06:19:43.706Z,24.00
2018-08-04T06:22:12.891Z,26.57
2018-08-04T06:24:41.795Z,27.77
2018-08-04T06:27:11.038Z,26.70
2018-08-04T06:29:40.205Z,25.33
2018-08-04T06:32:09.684Z,25.67
2018-08-04T06:34:38.258Z,24.27
2018-08-04T06:37:07.838Z,25.07
2018-08-04T06:39:37.302Z,25.50
2018-08-04T06:42:06.597Z,24.70
2018-08-04T06:44:35.724Z,24.20
2018-08-04T06:47:05.170Z,23.83
2018-08-04T06:49:34.385Z,23.60
2018-08-04T06:52:03.487Z,22.20
2018-08-04T06:54:32.669Z,21.50
2018-08-04T06:57:01.991Z,22.23
2018-08-04T06:59:31.265Z,22.10
2018-08-04T07:02:00.230Z,21.10
2018-08-04T07:04:29.330Z,22.83
2018-08-04T07:06:58.349Z,21.93
2018-08-04T07:09:27.444Z,20.77
2018-08-04T07:11:56.432Z,21.93
2018-08-04T07:14:25.440Z,21.90
2018-08-04T07:16:54.544Z,23.10
2018-08-04T07:19:23.562Z,25.30
2018-08-04T07:21:52.820Z,24.23
2018-08-04T07:24:22.398Z,21.97
2018-08-04T07:26:51.457Z,22.23
2018-08-04T07:29:20.498Z,21.77
2018-08-04T07:31:49.827Z,22.17
2018-08-04T07:34:18.939Z,22.17
2018-08-04T07:36:48.110Z,21.57
2018-08-04T07:39:17.397Z,20.60
2018-08-04T07:41:46.373Z,23.20
2018-08-04T07:44:15.337Z,22.70
2018-08-04T07:46:44.432Z,21.23
2018-08-04T07:49:13.523Z,22.43
2018-08-04T07:51:42.575Z,22.20
2018-08-04T07:54:11.675Z,21.30
2018-08-04T07:56:40.809Z,21.50
2018-08-04T07:59:10.041Z,21.00
2018-08-04T08:01:39.514Z,20.07
2018-08-04T08:04:08.609Z,20.00
2018-08-04T08:06:41.773Z,19.00
2018-08-04T08:09:10.895Z,20.30
2018-08-04T08:11:40.024Z,20.03
2018-08-04T08:14:09.196Z,19.67
2018-08-04T08:16:38.553Z,17.77
2018-08-04T08:19:07.799Z,15.93
2018-08-04T08:21:36.945Z,15.53
2018-08-04T08:24:06.014Z,16.83
2018-08-04T08:26:35.205Z,16.50
2018-08-04T08:29:04.511Z,15.50
2018-08-04T08:31:33.601Z,15.43
2018-08-04T08:34:02.679Z,14.90
2018-08-04T08:36:31.721Z,15.90
2018-08-04T08:39:00.306Z,15.87
2018-08-04T08:41:29.486Z,16.93
2018-08-04T08:43:58.579Z,16.43
2018-08-04T08:46:27.650Z,17.40
2018-08-04T08:48:57.759Z,15.90
2018-08-04T08:51:26.779Z,15.83
2018-08-04T08:53:55.898Z,19.00
2018-08-04T08:56:26.060Z,17.80
2018-08-04T08:58:55.018Z,17.50
2018-08-04T09:01:24.095Z,17.50
2018-08-04T09:03:54.112Z,16.70
2018-08-04T09:06:23.385Z,16.40
2018-08-04T09:08:51.921Z,15.07
2018-08-04T09:11:21.112Z,16.47
2018-08-04T09:13:50.212Z,17.13
2018-08-04T09:16:19.292Z,17.47
2018-08-04T09:18:48.808Z,15.93
2018-08-04T09:21:17.739Z,15.70
2018-08-04T09:23:46.576Z,13.77
2018-08-04T09:26:15.475Z,14.13
2018-08-04T09:28:44.385Z,12.90
2018-08-04T09:31:13.285Z,13.63
2018-08-04T09:33:42.120Z,14.40
2018-08-04T09:36:11.118Z,13.93
2018-08-04T09:38:40.081Z,14.53
2018-08-04T09:41:09.145Z,14.23
2018-08-04T09:43:37.729Z,13.53
2018-08-04T09:46:06.658Z,12.80
2018-08-04T09:48:35.602Z,13.00
2018-08-04T09:51:04.688Z,12.30
2018-08-04T09:53:33.705Z,11.67
2018-08-04T09:56:02.551Z,10.83
2018-08-04T09:58:31.455Z,10.13
2018-08-04T10:01:05.427Z,8.90
2018-08-04T10:03:34.296Z,9.70
2018-08-04T10:08:56.452Z,10.30
2018-08-04T10:11:51.504Z,8.40
2018-08-04T10:14:21.483Z,8.17
2018-08-04T10:16:52.278Z,8.20
2018-08-04T10:19:21.014Z,8.50
2018-08-04T10:21:50.734Z,8.10
2018-08-04T10:24:19.768Z,8.50
2018-08-04T10:26:49.906Z,8.27
2018-08-04T10:29:18.948Z,7.83
2018-08-04T10:31:47.689Z,6.70
2018-08-04T10:34:16.683Z,7.83
2018-08-04T10:36:51.574Z,7.90
2018-08-04T10:39:20.682Z,7.70
2018-08-04T10:41:49.677Z,7.60
2018-08-04T10:44:18.350Z,7.50
2018-08-04T10:46:47.493Z,7.00
2018-08-04T10:49:16.396Z,6.60
2018-08-04T10:51:45.386Z,6.90
2018-08-04T10:54:14.408Z,7.83
2018-08-04T10:56:43.245Z,7.70
2018-08-04T10:59:12.158Z,8.07
2018-08-04T11:01:40.956Z,7.40
2018-08-04T11:04:09.683Z,7.50
2018-08-04T11:06:38.453Z,6.97
2018-08-04T11:09:09.829Z,8.13
2018-08-04T11:11:38.566Z,7.70
2018-08-04T11:14:09.086Z,7.47
2018-08-04T11:16:38.531Z,7.57
2018-08-04T11:19:07.454Z,7.80
2018-08-04T11:21:36.507Z,7.67
2018-08-04T11:24:05.607Z,8.07
2018-08-04T11:26:35.223Z,8.07
2018-08-04T11:29:04.489Z,8.10
2018-08-04T11:31:33.691Z,8.33
2018-08-04T11:34:02.504Z,7.67
2018-08-04T11:36:31.471Z,8.03
2018-08-04T11:39:00.219Z,7.63
2018-08-04T11:41:30.063Z,7.30
2018-08-04T11:43:58.788Z,7.50
2018-08-04T11:46:27.510Z,8.03
2018-08-04T11:48:56.357Z,7.97
2018-08-04T11:51:25.242Z,7.70
2018-08-04T11:53:53.990Z,8.10
2018-08-04T11:56:22.833Z,8.67
2018-08-04T11:58:51.550Z,7.97
2018-08-04T12:01:20.256Z,8.43
2018-08-04T12:03:49.199Z,8.13
2018-08-04T12:06:17.902Z,8.07
2018-08-04T12:08:47.787Z,8.60
2018-08-04T12:11:16.597Z,8.70
2018-08-04T12:13:45.235Z,8.60
2018-08-04T12:16:14.069Z,7.80
2018-08-04T12:18:42.782Z,7.90
2018-08-04T12:21:11.589Z,7.87
2018-08-04T12:23:40.261Z,8.67
2018-08-04T12:26:09.035Z,7.93
2018-08-04T12:28:37.794Z,9.00
2018-08-04T12:31:06.555Z,9.57
2018-08-04T12:33:35.189Z,9.03
2018-08-04T12:36:03.987Z,9.10
2018-08-04T12:38:32.696Z,8.20
2018-08-04T12:41:01.443Z,9.60
2018-08-04T12:43:30.067Z,9.30
2018-08-04T12:45:59.683Z,9.80
2018-08-04T12:48:30.173Z,9.03
2018-08-04T12:51:00.803Z,9.20
2018-08-04T12:53:29.574Z,9.07
2018-08-04T12:55:59.106Z,8.87
2018-08-04T12:58:27.739Z,9.37
2018-08-04T13:00:56.461Z,9.10
2018-08-04T13:03:25.075Z,8.13
2018-08-04T13:05:53.744Z,8.53
2018-08-04T13:08:27.434Z,8.13
2018-08-04T13:10:56.127Z,7.90
2018-08-04T13:13:24.790Z,8.07
2018-08-04T13:15:53.440Z,8.77
2018-08-04T13:18:22.090Z,9.10
2018-08-04T13:20:51.060Z,8.70
2018-08-04T13:23:19.755Z,7.80
2018-08-04T13:25:48.732Z,8.80
2018-08-04T13:28:17.566Z,9.50
2018-08-04T13:30:46.504Z,8.60
2018-08-04T13:33:15.304Z,9.30
2018-08-04T13:35:44.077Z,8.77
2018-08-04T13:38:12.758Z,8.40
2018-08-04T13:40:41.640Z,8.20
2018-08-04T13:43:10.419Z,8.00
2018-08-04T13:45:39.213Z,9.03
2018-08-04T13:48:08.045Z,8.67
2018-08-04T13:50:36.880Z,8.40
2018-08-04T13:53:05.582Z,8.73
2018-08-04T13:55:34.296Z,8.53
2018-08-04T13:58:04.129Z,8.20
2018-08-04T14:00:32.931Z,7.80
2018-08-04T14:03:01.658Z,7.97
2018-08-04T14:05:30.571Z,8.70
2018-08-04T14:07:59.284Z,7.63
2018-08-04T14:10:28.052Z,8.10
2018-08-04T14:12:56.816Z,8.47
2018-08-04T14:15:25.556Z,8.67
2018-08-04T14:17:54.194Z,9.67
2018-08-04T14:20:22.938Z,7.70
2018-08-04T14:22:51.653Z,8.30
2018-08-04T14:25:20.367Z,9.47
2018-08-04T14:27:49.059Z,7.97
2018-08-04T14:30:17.705Z,7.70
2018-08-04T14:32:46.663Z,8.63
2018-08-04T14:35:15.504Z,8.87
2018-08-04T14:37:44.308Z,8.43
2018-08-04T14:40:13.001Z,8.30
2018-08-04T14:42:41.835Z,9.27
2018-08-04T14:45:10.471Z,8.93
2018-08-04T14:47:39.312Z,7.63
2018-08-04T14:50:08.114Z,8.63
2018-08-04T14:52:36.722Z,8.20
2018-08-04T14:55:05.997Z,9.33
2018-08-04T14:57:34.696Z,8.40
2018-08-04T15:00:03.600Z,8.63
2018-08-04T15:02:32.274Z,9.07
2018-08-04T15:05:01.270Z,8.77
2018-08-04T15:07:29.923Z,7.80
2018-08-04T15:09:58.595Z,7.90
2018-08-04T15:12:28.324Z,9.70
2018-08-04T15:14:57.015Z,8.30
2018-08-04T15:17:25.715Z,9.40
2018-08-04T15:19:54.457Z,9.30
2018-08-04T15:22:23.169Z,8.83
2018-08-04T15:24:51.892Z,8.70
2018-08-04T15:27:20.604Z,7.93
2018-08-04T15:29:49.249Z,8.37
2018-08-04T15:32:17.954Z,7.90
2018-08-04T15:34:46.653Z,8.03
2018-08-04T15:37:15.301Z,7.40
2018-08-04T15:39:44.020Z,7.90
2018-08-04T15:42:13.000Z,8.03
2018-08-04T15:44:41.668Z,8.30
2018-08-04T15:47:10.403Z,7.97
2018-08-04T15:49:39.207Z,7.50
2018-08-04T15:52:07.934Z,9.17
2018-08-04T15:54:36.652Z,7.47
2018-08-04T15:57:05.374Z,8.13
2018-08-04T15:59:34.112Z,8.70
2018-08-04T16:02:02.844Z,8.00
2018-08-04T16:04:31.474Z,7.80
2018-08-04T16:07:00.148Z,8.30
2018-08-04T16:09:28.829Z,8.50
2018-08-04T16:11:57.516Z,7.90
2018-08-04T16:14:27.192Z,7.87
2018-08-04T16:16:56.835Z,7.60
2018-08-04T16:19:25.597Z,8.73
2018-08-04T16:21:54.308Z,7.90
2018-08-04T16:24:23.074Z,7.97
2018-08-04T16:26:51.740Z,8.30
2018-08-04T16:29:20.387Z,7.40
2018-08-04T16:31:49.110Z,7.40
2018-08-04T16:34:18.842Z,8.40
2018-08-04T16:36:47.656Z,8.80
2018-08-04T16:39:16.540Z,7.90
2018-08-04T16:41:45.403Z,8.83
2018-08-04T16:44:14.116Z,9.60
2018-08-04T16:46:42.761Z,9.00
2018-08-04T16:49:11.524Z,8.87
2018-08-04T16:51:40.264Z,8.80
2018-08-04T16:54:09.150Z,8.00
2018-08-04T16:56:37.984Z,9.00
2018-08-04T16:59:06.785Z,8.67
2018-08-04T17:01:35.588Z,8.83
2018-08-04T17:04:04.367Z,8.70
2018-08-04T17:06:33.057Z,9.10
2018-08-04T17:09:01.720Z,9.20
2018-08-04T17:11:30.391Z,8.90
2018-08-04T17:13:59.213Z,8.00
2018-08-04T17:16:27.962Z,8.20
2018-08-04T17:18:56.611Z,8.80
2018-08-04T17:21:25.391Z,7.97
2018-08-04T17:23:54.183Z,8.73
2018-08-04T17:26:22.860Z,10.40
2018-08-04T17:28:51.695Z,9.87
2018-08-04T17:31:20.408Z,9.50
2018-08-04T17:33:49.132Z,11.37
2018-08-04T17:36:18.032Z,10.63
2018-08-04T17:38:46.744Z,11.53
2018-08-04T17:41:15.435Z,11.43
2018-08-04T17:43:45.133Z,11.00
2018-08-04T17:46:13.796Z,12.23
2018-08-04T17:48:42.469Z,11.47
2018-08-04T17:51:11.130Z,10.70
2018-08-04T17:53:39.855Z,12.30
2018-08-04T17:56:08.596Z,11.47
2018-08-04T17:58:37.470Z,11.13
2018-08-04T18:01:06.237Z,12.20
2018-08-04T18:03:34.915Z,11.97
2018-08-04T18:06:03.929Z,11.57
2018-08-04T18:08:32.706Z,11.67
2018-08-04T18:11:01.452Z,11.70
2018-08-04T18:13:30.130Z,12.00
2018-08-04T18:15:59.981Z,12.00
2018-08-04T18:18:28.720Z,11.70
2018-08-04T18:20:57.536Z,12.10
2018-08-04T18:23:26.284Z,11.30
2018-08-04T18:25:55.146Z,11.70
2018-08-04T18:28:23.895Z,12.70
2018-08-04T18:30:52.629Z,11.33
2018-08-04T18:33:21.326Z,11.30
2018-08-04T18:35:50.017Z,12.70
2018-08-04T18:38:18.788Z,11.30
2018-08-04T18:40:47.703Z,12.40
2018-08-04T18:43:16.634Z,12.73
2018-08-04T18:45:45.282Z,12.13
2018-08-04T18:48:14.083Z,11.50
2018-08-04T18:50:42.783Z,12.93
2018-08-04T18:53:11.553Z,12.67
2018-08-04T18:55:40.243Z,13.30
2018-08-04T18:58:09.206Z,12.20
2018-08-04T19:00:37.934Z,11.63
2018-08-04T19:03:06.788Z,13.07
2018-08-04T19:05:35.501Z,12.93
2018-08-04T19:08:04.144Z,11.80
2018-08-04T19:10:32.970Z,12.40
2018-08-04T19:13:01.818Z,12.30
2018-08-04T19:15:30.556Z,13.03
2018-08-04T19:17:59.228Z,13.10
2018-08-04T19:20:27.916Z,16.10
2018-08-04T19:22:56.691Z,14.20
2018-08-04T19:25:26.664Z,14.80
2018-08-04T19:27:58.261Z,20.20
2018-08-04T19:30:45.030Z,13.23
2018-08-04T19:33:16.500Z,11.80
2018-08-04T19:35:45.602Z,12.40
2018-08-04T19:38:14.638Z,13.83
2018-08-04T19:40:43.813Z,14.13
2018-08-04T19:43:12.556Z,14.80
2018-08-04T19:45:41.275Z,15.10
2018-08-04T19:48:09.959Z,15.87
2018-08-04T19:50:38.683Z,15.17
2018-08-04T19:53:07.618Z,16.00
2018-08-04T19:55:36.478Z,15.30
2018-08-04T19:58:05.220Z,14.83
2018-08-04T20:00:33.976Z,14.83
2018-08-04T20:03:02.835Z,14.73
2018-08-04T20:05:33.504Z,14.33
2018-08-04T20:08:02.147Z,15.43
2018-08-04T20:10:30.853Z,14.80
2018-08-04T20:12:59.693Z,16.63
2018-08-04T20:15:28.334Z,14.50
2018-08-04T20:17:59.089Z,16.30
2018-08-04T20:20:27.957Z,20.87
2018-08-04T20:22:56.678Z,14.00
2018-08-04T20:25:27.935Z,14.13
2018-08-04T20:27:59.694Z,15.30
2018-08-04T20:30:28.595Z,15.07
2018-08-04T20:32:58.304Z,15.70
2018-08-04T20:35:27.048Z,14.90
2018-08-04T20:37:55.783Z,14.13
2018-08-04T20:40:24.523Z,16.30
2018-08-04T20:42:53.195Z,22.07
2018-08-04T20:45:22.862Z,15.27
2018-08-04T20:47:51.793Z,17.50
2018-08-04T20:50:21.516Z,23.13
2018-08-04T20:52:52.679Z,18.30
2018-08-04T20:55:21.537Z,16.47
2018-08-04T20:57:50.240Z,15.30
2018-08-04T21:00:18.855Z,16.60
2018-08-04T21:02:47.762Z,15.43
2018-08-04T21:05:16.354Z,16.00
2018-08-04T21:07:46.165Z,14.93
2018-08-04T21:10:14.877Z,16.40
2018-08-04T21:12:43.505Z,17.20
2018-08-04T21:15:12.167Z,14.87
2018-08-04T21:17:40.858Z,16.10
2018-08-04T21:20:09.526Z,16.30
2018-08-04T21:22:38.222Z,16.00
2018-08-04T21:25:07.125Z,16.47
2018-08-04T21:27:35.740Z,17.27
2018-08-04T21:30:05.118Z,16.07
2018-08-04T21:32:33.834Z,16.40
2018-08-04T21:35:02.532Z,16.77
2018-08-04T21:37:31.268Z,16.87
2018-08-04T21:39:59.961Z,16.70
2018-08-04T21:42:28.699Z,16.63
2018-08-04T21:44:57.407Z,17.50
2018-08-04T21:47:26.147Z,16.60
2018-08-04T21:49:55.949Z,17.70
2018-08-04T21:52:25.814Z,17.67
2018-08-04T21:54:54.523Z,16.90
2018-08-04T21:57:23.391Z,16.00
2018-08-04T21:59:52.153Z,17.77
2018-08-04T22:02:20.891Z,17.30
2018-08-04T22:04:49.731Z,16.13
2018-08-04T22:07:54.648Z,14.80
2018-08-04T22:10:23.455Z,16.87
2018-08-04T22:12:52.218Z,14.67
2018-08-04T22:15:20.921Z,15.60
2018-08-04T22:17:49.666Z,14.83
2018-08-04T22:20:19.610Z,15.30
2018-08-04T22:22:48.534Z,15.57
2018-08-04T22:25:18.498Z,15.57
2018-08-04T22:27:47.202Z,15.10
2018-08-04T22:30:17.064Z,16.07
2018-08-04T22:32:47.929Z,17.00
2018-08-04T22:35:16.891Z,15.83
2018-08-04T22:37:45.839Z,17.90
2018-08-04T22:40:15.340Z,16.90
2018-08-04T22:42:44.515Z,16.50
2018-08-04T22:46:12.359Z,18.00
2018-08-04T22:48:41.873Z,18.57
2018-08-04T22:51:10.677Z,18.83
2018-08-04T22:53:39.480Z,17.93
2018-08-04T22:56:08.261Z,19.60
2018-08-04T22:58:37.135Z,19.00
2018-08-04T23:01:05.940Z,18.80
2018-08-04T23:03:34.633Z,20.30
2018-08-04T23:06:04.973Z,19.53
2018-08-04T23:08:33.562Z,20.07
2018-08-04T23:11:02.311Z,20.13
2018-08-04T23:13:32.113Z,19.30
2018-08-04T23:16:00.916Z,19.90
2018-08-04T23:18:29.676Z,20.10
2018-08-04T23:20:58.336Z,19.10
2018-08-04T23:23:26.958Z,20.57
2018-08-04T23:25:55.579Z,19.67
2018-08-04T23:28:24.294Z,21.53
2018-08-04T23:30:52.915Z,20.50
2018-08-04T23:33:21.583Z,21.27
2018-08-04T23:35:50.260Z,21.03
2018-08-04T23:38:18.913Z,20.30
2018-08-04T23:40:47.768Z,20.50
2018-08-04T23:43:16.435Z,19.47
2018-08-04T23:45:45.112Z,21.17
2018-08-04T23:48:13.704Z,20.00
2018-08-04T23:50:42.476Z,20.20
2018-08-04T23:53:11.110Z,21.80
2018-08-04T23:55:39.762Z,20.43
2018-08-04T23:58:08.566Z,20.03
